createdAt,value
2023-04-20T00:00:54.819Z,92.01
2023-04-20T00:01:59.110Z,93.08
2023-04-20T00:03:02.077Z,92.63
2023-04-20T00:04:04.214Z,91.88
2023-04-20T00:05:09.031Z,92.62
2023-04-20T00:06:10.869Z,92.78
2023-04-20T00:07:13.112Z,92.81
2023-04-20T00:08:15.022Z,92.71
2023-04-20T00:09:17.178Z,92.22
2023-04-20T00:10:20.014Z,92.60
2023-04-20T00:11:21.840Z,91.89
2023-04-20T00:12:23.612Z,92.97
2023-04-20T00:13:26.524Z,92.96
2023-04-20T00:14:28.323Z,93.08
2023-04-20T00:15:30.541Z,92.60
2023-04-20T00:16:32.379Z,92.51
2023-04-20T00:17:34.305Z,92.23
2023-04-20T00:18:36.116Z,93.09
2023-04-20T00:19:37.864Z,92.84
2023-04-20T00:20:40.063Z,93.10
2023-04-20T00:21:42.005Z,92.50
2023-04-20T00:22:43.822Z,92.37
2023-04-20T00:23:45.586Z,92.21
2023-04-20T00:24:47.387Z,92.78
2023-04-20T00:25:51.016Z,92.69
2023-04-20T00:26:52.852Z,92.85
2023-04-20T00:27:54.617Z,92.49
2023-04-20T00:28:56.537Z,93.17
2023-04-20T00:29:58.314Z,92.81
2023-04-20T00:31:00.158Z,92.81
2023-04-20T00:32:02.041Z,92.54
2023-04-20T00:33:03.972Z,93.29
2023-04-20T00:34:05.929Z,92.53
2023-04-20T00:35:08.167Z,92.92
2023-04-20T00:36:10.069Z,93.29
2023-04-20T00:37:11.901Z,92.75
2023-04-20T00:38:13.864Z,93.19
2023-04-20T00:39:16.712Z,92.95
2023-04-20T00:40:18.826Z,93.01
2023-04-20T00:41:20.617Z,93.42
2023-04-20T00:42:22.448Z,93.59
2023-04-20T00:43:24.380Z,93.74
2023-04-20T00:44:26.120Z,93.63
2023-04-20T00:45:27.865Z,93.81
2023-04-20T00:46:29.811Z,93.73
2023-04-20T00:47:31.684Z,93.35
2023-04-20T00:48:33.558Z,94.27
2023-04-20T00:49:35.432Z,93.97
2023-04-20T00:50:37.707Z,94.48
2023-04-20T00:51:40.017Z,93.89
2023-04-20T00:52:41.989Z,94.59
2023-04-20T00:53:44.805Z,94.74
2023-04-20T00:54:46.738Z,94.32
2023-04-20T00:55:49.078Z,94.78
2023-04-20T00:56:52.305Z,94.07
2023-04-20T00:57:54.100Z,94.44
2023-04-20T00:58:56.200Z,94.19
2023-04-20T00:59:58.095Z,93.85
2023-04-20T01:01:00.058Z,94.09
2023-04-20T01:02:01.947Z,94.27
2023-04-20T01:03:05.324Z,93.50
2023-04-20T01:04:08.099Z,93.78
2023-04-20T01:05:10.760Z,93.86
2023-04-20T01:06:14.083Z,93.95
2023-04-20T01:07:16.032Z,93.81
2023-04-20T01:08:17.873Z,94.01
2023-04-20T01:09:19.903Z,93.21
2023-04-20T01:10:21.836Z,93.47
2023-04-20T01:11:23.736Z,93.52
2023-04-20T01:12:25.929Z,93.13
2023-04-20T01:13:27.730Z,92.76
2023-04-20T01:14:29.511Z,93.54
2023-04-20T01:15:31.372Z,92.56
2023-04-20T01:16:35.073Z,93.31
2023-04-20T01:17:42.143Z,92.73
2023-04-20T01:18:48.639Z,92.30
2023-04-20T01:19:50.747Z,93.23
2023-04-20T01:20:52.490Z,92.53
2023-04-20T01:21:54.483Z,92.12
2023-04-20T01:22:57.146Z,93.20
2023-04-20T01:23:58.914Z,92.60
2023-04-20T01:25:00.804Z,92.83
2023-04-20T01:26:06.512Z,93.40
2023-04-20T01:27:08.273Z,92.98
2023-04-20T01:28:10.146Z,93.11
2023-04-20T01:29:11.875Z,93.67
2023-04-20T01:30:13.877Z,93.65
2023-04-20T01:31:15.730Z,93.57
2023-04-20T01:32:18.089Z,93.59
2023-04-20T01:33:19.814Z,93.76
2023-04-20T01:34:21.647Z,93.13
2023-04-20T01:35:23.411Z,93.21
2023-04-20T01:36:25.203Z,93.22
2023-04-20T01:37:27.149Z,93.00
2023-04-20T01:38:29.005Z,93.92
2023-04-20T01:39:31.358Z,93.06
2023-04-20T01:40:34.072Z,92.73
2023-04-20T01:41:36.046Z,93.23
2023-04-20T01:42:37.987Z,93.07
2023-04-20T01:43:39.964Z,93.69
2023-04-20T01:44:41.806Z,93.66
2023-04-20T01:45:45.222Z,93.57
2023-04-20T01:46:46.995Z,93.48
2023-04-20T01:47:48.822Z,92.35
2023-04-20T01:48:50.627Z,92.99
2023-04-20T01:49:52.389Z,93.12
2023-04-20T01:50:55.137Z,93.09
2023-04-20T01:51:57.475Z,92.38
2023-04-20T01:52:59.263Z,93.12
2023-04-20T01:54:01.512Z,92.46
2023-04-20T01:55:03.332Z,92.98
2023-04-20T01:56:06.182Z,92.21
2023-04-20T01:57:07.986Z,92.80
2023-04-20T01:58:09.909Z,92.36
2023-04-20T01:59:11.661Z,92.73
2023-04-20T02:00:13.917Z,93.21
2023-04-20T02:01:16.178Z,92.36
2023-04-20T02:02:18.449Z,93.16
2023-04-20T02:03:20.412Z,92.23
2023-04-20T02:04:23.520Z,93.02
2023-04-20T02:05:25.384Z,92.41
2023-04-20T02:06:27.190Z,92.53
2023-04-20T02:07:28.892Z,93.25
2023-04-20T02:08:30.756Z,93.20
2023-04-20T02:09:32.540Z,92.95
2023-04-20T02:10:34.301Z,92.95
2023-04-20T02:11:37.139Z,92.74
2023-04-20T02:12:38.943Z,92.74
2023-04-20T02:13:40.750Z,93.35
2023-04-20T02:14:42.560Z,93.12
2023-04-20T02:15:44.312Z,93.19
2023-04-20T02:16:48.256Z,93.58
2023-04-20T02:17:52.969Z,93.50
2023-04-20T02:18:55.278Z,93.43
2023-04-20T02:19:57.065Z,94.00
2023-04-20T02:20:59.367Z,93.01
2023-04-20T02:22:01.586Z,92.87
2023-04-20T02:23:04.317Z,93.52
2023-04-20T02:24:06.613Z,92.92
2023-04-20T02:25:09.099Z,93.79
2023-04-20T02:26:10.842Z,93.95
2023-04-20T02:27:12.600Z,93.38
2023-04-20T02:28:14.404Z,93.24
2023-04-20T02:29:16.652Z,92.80
2023-04-20T02:30:18.536Z,92.92
2023-04-20T02:31:20.373Z,93.83
2023-04-20T02:32:22.233Z,94.11
2023-04-20T02:33:25.198Z,93.93
2023-04-20T02:34:26.983Z,93.81
2023-04-20T02:35:28.829Z,94.24
2023-04-20T02:36:31.162Z,93.36
2023-04-20T02:37:33.021Z,93.49
2023-04-20T02:38:35.165Z,93.11
2023-04-20T02:39:36.863Z,93.77
2023-04-20T02:40:38.612Z,93.81
2023-04-20T02:41:41.195Z,93.97
2023-04-20T02:42:42.995Z,93.30
2023-04-20T02:43:44.879Z,93.76
2023-04-20T02:44:46.704Z,94.03
2023-04-20T02:45:48.571Z,93.25
2023-04-20T02:46:52.287Z,93.88
2023-04-20T02:47:54.544Z,92.91
2023-04-20T02:48:56.986Z,93.62
2023-04-20T02:49:58.830Z,93.15
2023-04-20T02:51:01.381Z,92.61
2023-04-20T02:52:03.266Z,93.31
2023-04-20T02:53:05.321Z,92.92
2023-04-20T02:54:07.136Z,92.78
2023-04-20T02:55:09.013Z,93.29
2023-04-20T02:56:11.080Z,93.32
2023-04-20T02:57:12.971Z,93.49
2023-04-20T02:58:14.729Z,93.48
2023-04-20T02:59:17.472Z,93.71
2023-04-20T03:00:19.937Z,93.42
2023-04-20T03:01:22.048Z,93.69
2023-04-20T03:02:24.051Z,93.78
2023-04-20T03:03:26.112Z,93.41
2023-04-20T03:04:28.140Z,93.49
2023-04-20T03:05:30.209Z,93.46
2023-04-20T03:06:32.768Z,93.11
2023-04-20T03:07:34.574Z,93.02
2023-04-20T03:08:36.633Z,93.43
2023-04-20T03:09:38.411Z,92.83
2023-04-20T03:10:40.190Z,93.38
2023-04-20T03:11:42.000Z,92.75
2023-04-20T03:12:44.258Z,93.39
2023-04-20T03:13:46.069Z,92.98
2023-04-20T03:14:48.105Z,93.05
2023-04-20T03:15:49.888Z,93.07
2023-04-20T03:16:51.832Z,92.73
2023-04-20T03:17:53.734Z,92.88
2023-04-20T03:18:55.605Z,92.36
2023-04-20T03:19:57.707Z,92.59
2023-04-20T03:20:59.477Z,93.31
2023-04-20T03:22:01.464Z,92.32
2023-04-20T03:23:03.312Z,92.80
2023-04-20T03:24:07.102Z,93.29
2023-04-20T03:25:09.476Z,92.62
2023-04-20T03:26:11.276Z,92.97
2023-04-20T03:27:13.004Z,92.46
2023-04-20T03:28:16.316Z,92.41
2023-04-20T03:29:18.427Z,92.82
2023-04-20T03:30:20.453Z,93.31
2023-04-20T03:31:22.267Z,92.64
2023-04-20T03:32:24.103Z,93.54
2023-04-20T03:33:27.177Z,93.61
2023-04-20T03:34:28.910Z,93.48
2023-04-20T03:35:30.730Z,92.98
2023-04-20T03:36:33.020Z,92.71
2023-04-20T03:37:35.125Z,92.72
2023-04-20T03:38:37.109Z,92.46
2023-04-20T03:39:38.834Z,93.05
2023-04-20T03:40:40.683Z,93.19
2023-04-20T03:41:42.548Z,92.34
2023-04-20T03:42:44.338Z,92.29
2023-04-20T03:43:46.174Z,93.24
2023-04-20T03:44:47.936Z,92.23
2023-04-20T03:45:49.846Z,92.57
2023-04-20T03:46:51.799Z,92.80
2023-04-20T03:47:53.645Z,92.70
2023-04-20T03:48:55.494Z,92.64
2023-04-20T03:49:57.288Z,92.48
2023-04-20T03:50:59.221Z,92.58
2023-04-20T03:52:00.965Z,92.60
2023-04-20T03:53:02.770Z,92.75
2023-04-20T03:54:06.227Z,92.42
2023-04-20T03:55:08.171Z,92.71
2023-04-20T03:56:09.940Z,92.55
2023-04-20T03:57:11.737Z,92.26
2023-04-20T03:58:13.494Z,91.66
2023-04-20T03:59:15.854Z,92.01
2023-04-20T04:00:17.849Z,92.26
2023-04-20T04:01:19.639Z,92.60
2023-04-20T04:02:22.973Z,92.56
2023-04-20T04:03:25.185Z,92.42
2023-04-20T04:04:27.477Z,92.96
2023-04-20T04:05:29.509Z,92.56
2023-04-20T04:06:32.340Z,92.48
2023-04-20T04:07:34.131Z,92.13
2023-04-20T04:08:36.074Z,92.91
2023-04-20T04:09:37.871Z,92.14
2023-04-20T04:10:41.321Z,92.39
2023-04-20T04:11:43.191Z,92.95
2023-04-20T04:12:47.625Z,92.90
2023-04-20T04:13:49.601Z,93.06
2023-04-20T04:14:51.453Z,92.67
2023-04-20T04:15:53.128Z,92.14
2023-04-20T04:16:55.003Z,92.77
2023-04-20T04:17:56.927Z,93.18
2023-04-20T04:18:58.737Z,92.95
2023-04-20T04:20:02.377Z,93.31
2023-04-20T04:21:04.336Z,92.82
2023-04-20T04:22:07.534Z,92.88
2023-04-20T04:23:09.312Z,92.86
2023-04-20T04:24:11.037Z,92.41
2023-04-20T04:25:13.359Z,92.73
2023-04-20T04:26:15.458Z,93.95
2023-04-20T04:27:18.309Z,93.56
2023-04-20T04:28:20.165Z,93.15
2023-04-20T04:29:22.612Z,93.27
2023-04-20T04:30:24.418Z,93.64
2023-04-20T04:31:26.266Z,93.96
2023-04-20T04:32:28.097Z,93.27
2023-04-20T04:33:30.103Z,93.32
2023-04-20T04:34:33.952Z,93.55
2023-04-20T04:35:35.926Z,93.49
2023-04-20T04:36:37.728Z,93.84
2023-04-20T04:37:39.676Z,93.95
2023-04-20T04:38:45.022Z,93.75
2023-04-20T04:39:46.968Z,93.58
2023-04-20T04:40:48.838Z,93.31
2023-04-20T04:41:51.433Z,92.78
2023-04-20T04:42:53.242Z,92.51
2023-04-20T04:43:55.069Z,92.62
2023-04-20T04:44:57.342Z,93.06
2023-04-20T04:45:59.489Z,92.25
2023-04-20T04:47:02.865Z,92.38
2023-04-20T04:48:08.160Z,92.36
2023-04-20T04:49:10.790Z,91.62
2023-04-20T04:50:13.233Z,91.63
2023-04-20T04:51:15.008Z,92.46
2023-04-20T04:52:16.743Z,92.26
2023-04-20T04:53:18.518Z,91.56
2023-04-20T04:54:20.383Z,92.36
2023-04-20T04:55:22.229Z,92.41
2023-04-20T04:56:24.190Z,92.36
2023-04-20T04:57:26.678Z,91.96
2023-04-20T04:58:28.556Z,92.38
2023-04-20T04:59:30.383Z,92.19
2023-04-20T05:00:32.282Z,91.91
2023-04-20T05:01:34.091Z,92.33
2023-04-20T05:02:36.090Z,91.95
2023-04-20T05:03:38.346Z,92.46
2023-04-20T05:04:40.302Z,92.74
2023-04-20T05:05:42.321Z,92.96
2023-04-20T05:06:44.199Z,92.75
2023-04-20T05:07:46.051Z,92.34
2023-04-20T05:08:47.840Z,92.30
2023-04-20T05:09:49.639Z,92.92
2023-04-20T05:10:51.358Z,92.94
2023-04-20T05:11:53.149Z,92.56
2023-04-20T05:12:54.882Z,92.77
2023-04-20T05:13:56.709Z,93.27
2023-04-20T05:14:58.509Z,92.72
2023-04-20T05:16:00.763Z,92.74
2023-04-20T05:17:03.415Z,92.92
2023-04-20T05:18:05.421Z,92.58
2023-04-20T05:19:07.293Z,92.55
2023-04-20T05:20:10.854Z,92.60
2023-04-20T05:21:12.822Z,93.11
2023-04-20T05:22:14.776Z,93.00
2023-04-20T05:23:17.062Z,92.71
2023-04-20T05:24:19.782Z,93.74
2023-04-20T05:25:21.660Z,92.89
2023-04-20T05:26:23.469Z,92.61
2023-04-20T05:27:25.217Z,93.20
2023-04-20T05:28:27.148Z,93.26
2023-04-20T05:29:28.952Z,92.89
2023-04-20T05:30:30.737Z,92.63
2023-04-20T05:31:33.781Z,92.92
2023-04-20T05:32:35.687Z,92.59
2023-04-20T05:33:37.567Z,92.94
2023-04-20T05:34:39.338Z,92.81
2023-04-20T05:35:41.286Z,93.11
2023-04-20T05:36:43.265Z,93.01
2023-04-20T05:37:45.214Z,92.98
2023-04-20T05:38:47.091Z,93.35
2023-04-20T05:39:48.864Z,92.60
2023-04-20T05:40:52.103Z,92.92
2023-04-20T05:41:53.970Z,91.81
2023-04-20T05:42:55.820Z,91.85
2023-04-20T05:43:57.777Z,92.31
2023-04-20T05:44:59.559Z,92.81
2023-04-20T05:46:01.347Z,93.09
2023-04-20T05:47:06.599Z,92.85
2023-04-20T05:48:08.344Z,92.50
2023-04-20T05:49:10.160Z,93.02
2023-04-20T05:50:12.012Z,92.15
2023-04-20T05:51:14.319Z,92.53
2023-04-20T05:52:16.081Z,92.85
2023-04-20T05:53:17.934Z,93.00
2023-04-20T05:54:19.789Z,93.27
2023-04-20T05:55:23.001Z,94.19
2023-04-20T05:56:25.020Z,94.17
2023-04-20T05:57:26.857Z,93.16
2023-04-20T05:58:28.697Z,92.71
2023-04-20T05:59:30.644Z,92.71
2023-04-20T06:00:32.583Z,92.20
2023-04-20T06:01:34.641Z,93.15
2023-04-20T06:02:37.123Z,92.75
2023-04-20T06:03:39.378Z,91.81
2023-04-20T06:04:43.874Z,91.61
2023-04-20T06:05:46.285Z,92.14
2023-04-20T06:06:48.112Z,90.87
2023-04-20T06:07:49.894Z,90.83
2023-04-20T06:08:52.480Z,91.11
2023-04-20T06:09:54.578Z,91.25
2023-04-20T06:10:57.443Z,90.26
2023-04-20T06:12:00.601Z,90.04
2023-04-20T06:13:02.544Z,90.55
2023-04-20T06:14:04.325Z,91.00
2023-04-20T06:15:11.228Z,90.65
2023-04-20T06:16:13.230Z,89.56
2023-04-20T06:17:15.508Z,89.78
2023-04-20T06:18:17.260Z,89.25
2023-04-20T06:19:19.229Z,89.26
2023-04-20T06:20:21.453Z,89.81
2023-04-20T06:21:24.899Z,88.60
2023-04-20T06:22:26.922Z,88.52
2023-04-20T06:23:28.688Z,88.37
2023-04-20T06:24:30.480Z,88.24
2023-04-20T06:25:32.328Z,88.34
2023-04-20T06:26:34.130Z,88.68
2023-04-20T06:27:36.075Z,88.56
2023-04-20T06:28:38.066Z,88.51
2023-04-20T06:29:39.878Z,88.99
2023-04-20T06:30:41.764Z,89.14
2023-04-20T06:31:43.758Z,89.45
2023-04-20T06:32:46.865Z,89.99
2023-04-20T06:33:48.638Z,89.88
2023-04-20T06:34:51.496Z,90.42
2023-04-20T06:35:54.920Z,89.27
2023-04-20T06:36:56.868Z,89.64
2023-04-20T06:37:58.825Z,90.46
2023-04-20T06:39:00.733Z,90.56
2023-04-20T06:40:05.852Z,90.76
2023-04-20T06:41:07.725Z,91.25
2023-04-20T06:42:09.573Z,90.48
2023-04-20T06:43:11.378Z,91.39
2023-04-20T06:44:13.164Z,90.76
2023-04-20T06:45:15.017Z,91.68
2023-04-20T06:46:18.576Z,91.85
2023-04-20T06:47:21.114Z,91.38
2023-04-20T06:48:32.146Z,90.70
2023-04-20T06:49:34.965Z,90.31
2023-04-20T06:50:36.774Z,89.79
2023-04-20T06:51:39.549Z,89.92
2023-04-20T06:52:41.445Z,90.70
2023-04-20T06:53:43.264Z,89.76
2023-04-20T06:54:45.219Z,89.47
2023-04-20T06:55:47.085Z,88.81
2023-04-20T06:56:48.978Z,89.03
2023-04-20T06:57:50.898Z,88.74
2023-04-20T06:58:52.687Z,88.46
2023-04-20T06:59:54.548Z,89.18
2023-04-20T07:00:56.313Z,88.80
2023-04-20T07:01:58.273Z,88.55
2023-04-20T07:03:00.417Z,87.96
2023-04-20T07:04:02.442Z,89.01
2023-04-20T07:05:04.624Z,89.28
2023-04-20T07:06:07.595Z,88.87
2023-04-20T07:07:10.549Z,87.68
2023-04-20T07:08:12.301Z,87.68
2023-04-20T07:09:14.083Z,88.24
2023-04-20T07:10:16.399Z,89.25
2023-04-20T07:11:18.204Z,89.32
2023-04-20T07:12:21.589Z,87.30
2023-04-20T07:13:23.411Z,87.47
2023-04-20T07:14:26.571Z,88.28
2023-04-20T07:15:28.373Z,88.68
2023-04-20T07:16:30.203Z,88.51
2023-04-20T07:17:32.448Z,88.99
2023-04-20T07:18:35.360Z,88.49
2023-04-20T07:19:37.871Z,88.64
2023-04-20T07:20:39.768Z,88.74
2023-04-20T07:21:42.026Z,87.38
2023-04-20T07:22:43.842Z,86.62
2023-04-20T07:23:45.751Z,87.50
2023-04-20T07:24:47.469Z,87.19
2023-04-20T07:25:49.298Z,87.56
2023-04-20T07:26:51.817Z,87.81
2023-04-20T07:27:53.716Z,87.88
2023-04-20T07:28:55.739Z,88.20
2023-04-20T07:29:58.932Z,88.16
2023-04-20T07:31:00.787Z,88.17
2023-04-20T07:32:02.602Z,87.79
2023-04-20T07:33:04.521Z,87.72
2023-04-20T07:34:06.333Z,87.66
2023-04-20T07:35:08.504Z,87.56
2023-04-20T07:36:10.884Z,87.40
2023-04-20T07:37:13.644Z,85.97
2023-04-20T07:38:15.936Z,86.41
2023-04-20T07:39:18.006Z,86.67
2023-04-20T07:40:20.150Z,86.95
2023-04-20T07:41:23.448Z,86.61
2023-04-20T07:42:25.313Z,86.24
2023-04-20T07:43:27.328Z,86.16
2023-04-20T07:44:29.143Z,86.65
2023-04-20T07:45:31.051Z,87.02
2023-04-20T07:46:33.030Z,86.79
2023-04-20T07:47:35.462Z,86.94
2023-04-20T07:48:37.804Z,86.97
2023-04-20T07:49:41.188Z,87.19
2023-04-20T07:50:43.080Z,86.90
2023-04-20T07:51:45.716Z,86.50
2023-04-20T07:52:47.643Z,86.23
2023-04-20T07:53:49.506Z,86.09
2023-04-20T07:54:54.166Z,85.96
2023-04-20T07:55:56.308Z,85.07
2023-04-20T07:56:58.193Z,84.97
2023-04-20T07:58:00.928Z,85.39
2023-04-20T07:59:02.874Z,85.06
2023-04-20T08:00:08.953Z,85.46
2023-04-20T08:01:11.551Z,86.56
2023-04-20T08:02:13.528Z,86.19
2023-04-20T08:03:15.983Z,86.19
2023-04-20T08:04:18.122Z,85.71
2023-04-20T08:05:20.303Z,85.50
2023-04-20T08:06:22.425Z,85.02
2023-04-20T08:07:24.373Z,84.97
2023-04-20T08:08:26.120Z,84.98
2023-04-20T08:09:28.821Z,85.12
2023-04-20T08:10:30.898Z,85.32
2023-04-20T08:11:33.075Z,85.95
2023-04-20T08:12:34.863Z,85.65
2023-04-20T08:13:37.599Z,85.56
2023-04-20T08:14:40.729Z,85.71
2023-04-20T08:15:42.579Z,84.13
2023-04-20T08:16:44.509Z,83.73
2023-04-20T08:17:46.330Z,84.15
2023-04-20T08:18:48.208Z,84.70
2023-04-20T08:19:50.129Z,81.92
2023-04-20T08:20:51.919Z,82.93
2023-04-20T08:21:54.552Z,83.02
2023-04-20T08:22:56.506Z,83.41
2023-04-20T08:23:58.297Z,84.11
2023-04-20T08:25:00.201Z,84.37
2023-04-20T08:26:02.071Z,84.36
2023-04-20T08:27:03.897Z,84.60
2023-04-20T08:28:11.755Z,85.40
2023-04-20T08:29:14.222Z,86.02
2023-04-20T08:30:16.267Z,85.77
2023-04-20T08:31:18.182Z,85.88
2023-04-20T08:32:22.959Z,86.40
2023-04-20T08:33:24.818Z,86.52
2023-04-20T08:34:26.721Z,85.62
2023-04-20T08:35:28.698Z,85.84
2023-04-20T08:36:30.532Z,85.82
2023-04-20T08:37:33.164Z,85.01
2023-04-20T08:38:35.212Z,85.23
2023-04-20T08:39:38.313Z,84.52
2023-04-20T08:40:40.788Z,84.42
2023-04-20T08:41:42.598Z,85.07
2023-04-20T08:42:44.392Z,84.28
2023-04-20T08:43:46.964Z,84.34
2023-04-20T08:44:48.991Z,83.19
2023-04-20T08:45:52.082Z,83.78
2023-04-20T08:46:54.788Z,82.87
2023-04-20T08:47:58.644Z,82.86
2023-04-20T08:49:04.425Z,82.80
2023-04-20T08:50:06.960Z,84.28
2023-04-20T08:51:09.348Z,81.41
2023-04-20T08:52:12.409Z,80.58
2023-04-20T08:53:14.645Z,81.86
2023-04-20T08:54:17.257Z,84.17
2023-04-20T08:55:20.668Z,83.69
2023-04-20T08:56:42.828Z,82.73
2023-04-20T08:57:44.759Z,82.67
2023-04-20T08:58:46.575Z,82.33
2023-04-20T08:59:48.365Z,83.45
2023-04-20T09:00:50.232Z,82.80
2023-04-20T09:01:53.808Z,82.31
2023-04-20T09:02:56.368Z,80.58
2023-04-20T09:03:59.185Z,80.69
2023-04-20T09:05:01.881Z,80.99
2023-04-20T09:06:04.702Z,81.13
2023-04-20T09:07:07.614Z,82.03
2023-04-20T09:08:09.674Z,80.41
2023-04-20T09:09:12.001Z,78.47
2023-04-20T09:10:13.903Z,79.28
2023-04-20T09:11:25.572Z,78.58
2023-04-20T09:12:29.791Z,79.27
2023-04-20T09:13:31.611Z,78.10
2023-04-20T09:14:49.200Z,78.76
2023-04-20T09:15:51.215Z,78.24
2023-04-20T09:16:57.144Z,76.75
2023-04-20T09:17:59.846Z,76.83
2023-04-20T09:19:01.662Z,77.35
2023-04-20T09:20:05.397Z,77.24
2023-04-20T09:21:10.998Z,78.12
2023-04-20T09:22:12.970Z,79.44
2023-04-20T09:23:18.505Z,82.40
2023-04-20T09:24:21.814Z,80.82
2023-04-20T09:25:24.672Z,80.74
2023-04-20T09:26:26.515Z,81.62
2023-04-20T09:27:29.048Z,82.61
2023-04-20T09:28:39.378Z,82.64
2023-04-20T09:29:41.391Z,82.22
2023-04-20T09:30:47.283Z,77.66
2023-04-20T09:31:49.751Z,79.31
2023-04-20T09:33:01.673Z,79.92
2023-04-20T09:34:04.120Z,79.43
2023-04-20T09:35:08.215Z,78.27
2023-04-20T09:36:11.814Z,77.59
2023-04-20T09:37:15.882Z,77.67
2023-04-20T09:38:17.793Z,78.89
2023-04-20T09:39:20.521Z,79.17
2023-04-20T09:40:23.468Z,79.11
2023-04-20T09:41:25.487Z,77.49
2023-04-20T09:42:29.076Z,78.41
2023-04-20T09:43:31.532Z,78.26
2023-04-20T09:44:33.611Z,77.79
2023-04-20T09:45:36.411Z,78.82
2023-04-20T09:46:40.870Z,76.95
2023-04-20T09:47:43.277Z,79.09
2023-04-20T09:48:45.118Z,78.71
2023-04-20T09:49:47.820Z,77.38
2023-04-20T09:50:51.461Z,75.80
2023-04-20T09:51:53.810Z,78.11
2023-04-20T09:52:56.300Z,79.12
2023-04-20T09:53:59.109Z,78.55
2023-04-20T09:55:01.106Z,76.98
2023-04-20T09:56:03.488Z,77.51
2023-04-20T09:57:06.249Z,77.64
2023-04-20T09:58:09.915Z,78.43
2023-04-20T09:59:12.267Z,73.78
2023-04-20T10:00:14.379Z,74.16
2023-04-20T10:01:16.178Z,75.16
2023-04-20T10:02:18.078Z,76.63
2023-04-20T10:03:20.690Z,77.13
2023-04-20T10:04:22.999Z,75.27
2023-04-20T10:05:39.856Z,75.34
2023-04-20T10:06:52.434Z,74.31
2023-04-20T10:07:59.505Z,74.92
2023-04-20T10:09:02.369Z,74.58
2023-04-20T10:10:08.354Z,74.42
2023-04-20T10:11:10.561Z,73.23
2023-04-20T10:12:14.117Z,71.33
2023-04-20T10:13:17.305Z,70.08
2023-04-20T10:14:21.068Z,70.23
2023-04-20T10:15:24.398Z,71.46
2023-04-20T10:16:26.982Z,69.26
2023-04-20T10:17:32.412Z,71.29
2023-04-20T10:18:34.495Z,72.51
2023-04-20T10:19:46.900Z,70.63
2023-04-20T10:20:49.331Z,70.05
2023-04-20T10:21:52.785Z,70.28
2023-04-20T10:22:55.329Z,70.97
2023-04-20T10:23:59.146Z,69.83
2023-04-20T10:25:02.854Z,69.06
2023-04-20T10:26:04.661Z,71.69
2023-04-20T10:27:22.326Z,72.47
2023-04-20T10:28:24.370Z,70.18
2023-04-20T10:29:26.874Z,72.03
2023-04-20T10:30:29.639Z,69.30
2023-04-20T10:31:42.928Z,70.43
2023-04-20T10:32:44.767Z,72.01
2023-04-20T10:33:50.503Z,69.90
2023-04-20T10:35:02.129Z,69.61
2023-04-20T10:36:04.196Z,67.67
2023-04-20T10:37:09.213Z,69.26
2023-04-20T10:38:11.728Z,67.29
2023-04-20T10:39:15.971Z,67.16
2023-04-20T10:40:27.346Z,67.76
2023-04-20T10:41:29.162Z,67.98
2023-04-20T10:42:41.414Z,66.42
2023-04-20T10:43:43.800Z,66.62
2023-04-20T10:44:49.400Z,66.99
2023-04-20T10:45:51.255Z,66.57
2023-04-20T10:46:54.946Z,65.11
2023-04-20T10:47:57.475Z,66.86
2023-04-20T10:49:04.938Z,68.12
2023-04-20T10:50:12.976Z,66.04
2023-04-20T10:51:14.757Z,66.39
2023-04-20T10:52:16.501Z,65.86
2023-04-20T10:53:22.117Z,65.79
2023-04-20T10:54:24.015Z,66.05
2023-04-20T10:55:26.363Z,65.90
2023-04-20T10:56:28.315Z,64.46
2023-04-20T10:57:30.197Z,66.77
2023-04-20T10:58:32.000Z,67.12
2023-04-20T10:59:37.652Z,66.81
2023-04-20T11:00:39.470Z,67.05
2023-04-20T11:01:41.702Z,68.16
2023-04-20T11:02:47.468Z,68.96
2023-04-20T11:03:52.000Z,69.95
2023-04-20T11:04:57.072Z,67.65
2023-04-20T11:06:01.923Z,67.37
2023-04-20T11:07:08.022Z,67.70
2023-04-20T11:08:09.976Z,67.68
2023-04-20T11:09:23.016Z,67.38
2023-04-20T11:10:37.344Z,66.77
2023-04-20T11:11:39.537Z,67.08
2023-04-20T11:12:41.352Z,66.89
2023-04-20T11:13:43.372Z,65.29
2023-04-20T11:14:55.086Z,66.04
2023-04-20T11:15:57.952Z,64.74
2023-04-20T11:17:00.015Z,65.62
2023-04-20T11:18:08.911Z,65.13
2023-04-20T11:19:10.810Z,60.13
2023-04-20T11:20:14.083Z,61.60
2023-04-20T11:21:16.024Z,65.32
2023-04-20T11:22:21.967Z,63.40
2023-04-20T11:23:25.002Z,61.46
2023-04-20T11:24:31.266Z,60.59
2023-04-20T11:25:33.098Z,58.68
2023-04-20T11:26:39.951Z,60.17
2023-04-20T11:27:42.393Z,61.07
2023-04-20T11:28:55.784Z,60.10
2023-04-20T11:29:58.621Z,59.38
2023-04-20T11:31:00.733Z,57.82
2023-04-20T11:32:07.357Z,56.72
2023-04-20T11:33:11.228Z,49.84
2023-04-20T11:34:19.531Z,48.88
2023-04-20T11:35:21.382Z,51.93
2023-04-20T11:36:23.893Z,46.82
2023-04-20T11:37:25.703Z,46.53
2023-04-20T11:38:31.656Z,45.45
2023-04-20T11:39:34.174Z,44.98
2023-04-20T11:40:36.345Z,45.70
2023-04-20T11:41:39.480Z,46.12
2023-04-20T11:42:41.351Z,45.98
2023-04-20T11:43:46.391Z,49.13
2023-04-20T11:44:49.567Z,45.96
2023-04-20T11:45:51.419Z,46.84
2023-04-20T11:46:54.565Z,46.97
2023-04-20T11:47:56.508Z,46.65
2023-04-20T11:49:00.536Z,46.69
2023-04-20T11:50:02.331Z,46.14
2023-04-20T11:51:04.288Z,47.00
2023-04-20T11:52:06.179Z,48.40
2023-04-20T11:53:10.088Z,47.81
2023-04-20T11:54:12.116Z,48.79
2023-04-20T11:55:14.162Z,46.96
2023-04-20T11:56:17.993Z,48.17
2023-04-20T11:57:21.943Z,48.49
2023-04-20T11:58:23.839Z,47.01
2023-04-20T11:59:25.819Z,48.54
2023-04-20T12:00:27.704Z,48.14
2023-04-20T12:01:29.810Z,48.17
2023-04-20T12:02:31.769Z,48.59
2023-04-20T12:03:34.055Z,48.76
2023-04-20T12:04:36.241Z,50.39
2023-04-20T12:05:38.431Z,50.80
2023-04-20T12:06:40.302Z,49.93
2023-04-20T12:07:42.209Z,49.35
2023-04-20T12:08:44.167Z,49.68
2023-04-20T12:09:45.974Z,49.96
2023-04-20T12:10:47.791Z,49.34
2023-04-20T12:11:49.589Z,47.37
2023-04-20T12:12:51.305Z,48.27
2023-04-20T12:13:54.779Z,47.40
2023-04-20T12:14:56.614Z,48.13
2023-04-20T12:15:58.427Z,47.13
2023-04-20T12:17:04.249Z,46.03
2023-04-20T12:18:06.518Z,48.76
2023-04-20T12:19:10.089Z,47.57
2023-04-20T12:20:12.524Z,47.88
2023-04-20T12:21:14.553Z,46.23
2023-04-20T12:22:16.446Z,47.15
2023-04-20T12:23:18.298Z,47.41
2023-04-20T12:24:20.099Z,45.41
2023-04-20T12:25:21.969Z,45.77
2023-04-20T12:26:34.603Z,45.36
2023-04-20T12:27:39.857Z,43.93
2023-04-20T12:28:41.620Z,44.45
2023-04-20T12:29:43.548Z,44.83
2023-04-20T12:30:45.367Z,46.86
2023-04-20T12:31:47.207Z,43.84
2023-04-20T12:32:49.165Z,44.96
2023-04-20T12:33:51.048Z,45.11
2023-04-20T12:34:53.000Z,44.99
2023-04-20T12:35:54.848Z,43.64
2023-04-20T12:36:56.733Z,44.64
2023-04-20T12:37:58.639Z,46.62
2023-04-20T12:39:01.974Z,45.40
2023-04-20T12:40:07.097Z,44.18
2023-04-20T12:41:13.409Z,46.96
2023-04-20T12:42:15.202Z,44.60
2023-04-20T12:43:17.069Z,44.75
2023-04-20T12:44:19.197Z,44.97
2023-04-20T12:45:21.182Z,44.61
2023-04-20T12:46:23.226Z,46.47
2023-04-20T12:47:25.168Z,43.53
2023-04-20T12:48:27.089Z,41.85
2023-04-20T12:49:28.909Z,43.24
2023-04-20T12:50:30.893Z,42.59
2023-04-20T12:51:34.188Z,43.09
2023-04-20T12:52:35.946Z,42.44
2023-04-20T12:53:37.756Z,41.30
2023-04-20T12:54:40.374Z,42.62
2023-04-20T12:55:43.546Z,42.02
2023-04-20T12:56:45.408Z,43.08
2023-04-20T12:57:47.207Z,41.94
2023-04-20T12:58:49.053Z,41.92
2023-04-20T12:59:50.949Z,40.49
2023-04-20T13:00:52.762Z,41.43
2023-04-20T13:01:55.180Z,41.27
2023-04-20T13:02:57.210Z,42.51
2023-04-20T13:04:00.418Z,40.87
2023-04-20T13:05:02.620Z,41.78
2023-04-20T13:06:04.468Z,41.11
2023-04-20T13:07:06.319Z,42.74
2023-04-20T13:08:08.109Z,42.56
2023-04-20T13:09:10.114Z,41.87
2023-04-20T13:10:12.255Z,39.35
2023-04-20T13:11:16.296Z,40.45
2023-04-20T13:12:18.109Z,42.77
2023-04-20T13:13:19.868Z,40.97
2023-04-20T13:14:21.915Z,40.42
2023-04-20T13:15:37.568Z,39.54
2023-04-20T13:16:41.063Z,39.88
2023-04-20T13:17:43.007Z,38.97
2023-04-20T13:18:44.895Z,41.37
2023-04-20T13:19:47.239Z,39.02
2023-04-20T13:20:49.147Z,40.78
2023-04-20T13:21:52.308Z,38.35
2023-04-20T13:22:57.625Z,39.20
2023-04-20T13:24:00.130Z,38.15
2023-04-20T13:25:02.150Z,38.44
2023-04-20T13:26:04.078Z,38.05
2023-04-20T13:27:05.861Z,39.27
2023-04-20T13:28:07.867Z,38.35